sensor_id;sensor_type;location;lat;lon;timestamp;pressure;altitude;pressure_sealevel;temperature;humidity
36692;BME280;22678;52.052;4.242;2023-01-10T00:00:50;101225.13;;;7.27;83.74
36692;BME280;22678;52.052;4.242;2023-01-10T00:03:16;101224.25;;;7.25;83.82
36692;BME280;22678;52.052;4.242;2023-01-10T00:05:41;101238.28;;;7.33;83.75
36692;BME280;22678;52.052;4.242;2023-01-10T00:08:07;101243.53;;;7.36;83.75
36692;BME280;22678;52.052;4.242;2023-01-10T00:10:33;101242.66;;;7.34;83.80
36692;BME280;22678;52.052;4.242;2023-01-10T00:12:59;101240.03;;;7.34;83.66
36692;BME280;22678;52.052;4.242;2023-01-10T00:15:43;101249.69;;;7.40;83.32
36692;BME280;22678;52.052;4.242;2023-01-10T00:18:09;101252.28;;;7.35;83.57
36692;BME280;22678;52.052;4.242;2023-01-10T00:20:34;101260.22;;;7.44;83.52
36692;BME280;22678;52.052;4.242;2023-01-10T00:23:00;101269.84;;;7.45;83.53
36692;BME280;22678;52.052;4.242;2023-01-10T00:25:26;101255.75;;;7.34;83.66
36692;BME280;22678;52.052;4.242;2023-01-10T00:27:53;101253.16;;;7.37;83.75
36692;BME280;22678;52.052;4.242;2023-01-10T00:30:30;101261.00;;;7.37;83.45
36692;BME280;22678;52.052;4.242;2023-01-10T00:32:59;101279.41;;;7.46;83.56
36692;BME280;22678;52.052;4.242;2023-01-10T00:35:24;101264.44;;;7.33;83.60
36692;BME280;22678;52.052;4.242;2023-01-10T00:37:50;101270.63;;;7.38;83.69
36692;BME280;22678;52.052;4.242;2023-01-10T00:40:21;101285.50;;;7.42;83.84
36692;BME280;22678;52.052;4.242;2023-01-10T00:42:47;101282.00;;;7.43;83.72
36692;BME280;22678;52.052;4.242;2023-01-10T00:45:31;101289.00;;;7.44;83.99
36692;BME280;22678;52.052;4.242;2023-01-10T00:47:56;101294.22;;;7.44;84.12
36692;BME280;22678;52.052;4.242;2023-01-10T00:50:21;101304.75;;;7.47;84.37
36692;BME280;22678;52.052;4.242;2023-01-10T00:52:47;101303.03;;;7.49;84.50
36692;BME280;22678;52.052;4.242;2023-01-10T00:55:12;101302.16;;;7.50;84.72
36692;BME280;22678;52.052;4.242;2023-01-10T00:57:37;101281.97;;;7.40;84.84
36692;BME280;22678;52.052;4.242;2023-01-10T01:00:04;101296.84;;;7.44;84.97
36692;BME280;22678;52.052;4.242;2023-01-10T01:02:33;101302.09;;;7.46;84.65
36692;BME280;22678;52.052;4.242;2023-01-10T01:04:58;101309.16;;;7.51;84.07
36692;BME280;22678;52.052;4.242;2023-01-10T01:07:23;101302.97;;;7.46;84.52
36692;BME280;22678;52.052;4.242;2023-01-10T01:09:49;101294.22;;;7.44;84.38
36692;BME280;22678;52.052;4.242;2023-01-10T01:12:32;101322.25;;;7.51;84.38
36692;BME280;22678;52.052;4.242;2023-01-10T01:14:58;101314.41;;;7.53;83.88
36692;BME280;22678;52.052;4.242;2023-01-10T01:17:23;101317.00;;;7.51;84.11
36692;BME280;22678;52.052;4.242;2023-01-10T01:19:48;101316.13;;;7.49;83.81
36692;BME280;22678;52.052;4.242;2023-01-10T01:22:14;101318.78;;;7.52;83.73
36692;BME280;22678;52.052;4.242;2023-01-10T01:24:40;101313.53;;;7.52;83.78
36692;BME280;22678;52.052;4.242;2023-01-10T01:27:05;101324.91;;;7.58;83.83
36692;BME280;22678;52.052;4.242;2023-01-10T01:29:31;101338.00;;;7.58;84.06
36692;BME280;22678;52.052;4.242;2023-01-10T01:31:57;101332.72;;;7.51;84.38
36692;BME280;22678;52.052;4.242;2023-01-10T01:34:22;101344.97;;;7.56;84.42
36692;BME280;22678;52.052;4.242;2023-01-10T01:36:47;101345.00;;;7.57;84.71
36692;BME280;22678;52.052;4.242;2023-01-10T01:39:13;101340.56;;;7.51;84.82
36692;BME280;22678;52.052;4.242;2023-01-10T01:41:38;101355.47;;;7.59;84.92
36692;BME280;22678;52.052;4.242;2023-01-10T01:44:22;101362.47;;;7.60;85.21
36692;BME280;22678;52.052;4.242;2023-01-10T01:49:25;101370.28;;;7.58;85.16
36692;BME280;22678;52.052;4.242;2023-01-10T01:51:57;101374.72;;;7.62;84.99
36692;BME280;22678;52.052;4.242;2023-01-10T01:54:24;101376.41;;;7.59;85.29
36692;BME280;22678;52.052;4.242;2023-01-10T01:56:53;101368.59;;;7.60;84.75
36692;BME280;22678;52.052;4.242;2023-01-10T01:59:47;101378.25;;;7.66;84.55
36692;BME280;22678;52.052;4.242;2023-01-10T02:02:33;101375.63;;;7.66;84.45
36692;BME280;22678;52.052;4.242;2023-01-10T02:05:03;101367.72;;;7.60;84.32
36692;BME280;22678;52.052;4.242;2023-01-10T02:07:35;101365.94;;;7.59;83.95
36692;BME280;22678;52.052;4.242;2023-01-10T02:12:44;101372.09;;;7.64;83.63
36692;BME280;22678;52.052;4.242;2023-01-10T02:15:10;101382.59;;;7.67;83.74
36692;BME280;22678;52.052;4.242;2023-01-10T02:17:37;101378.22;;;7.63;83.99
36692;BME280;22678;52.052;4.242;2023-01-10T02:20:06;101372.94;;;7.60;83.98
36692;BME280;22678;52.052;4.242;2023-01-10T02:28:24;101390.41;;;7.62;84.31
36692;BME280;22678;52.052;4.242;2023-01-10T02:34:24;101405.22;;;7.60;84.25
36692;BME280;22678;52.052;4.242;2023-01-10T02:37:04;101404.38;;;7.60;84.24
36692;BME280;22678;52.052;4.242;2023-01-10T02:39:48;101406.97;;;7.60;84.26
36692;BME280;22678;52.052;4.242;2023-01-10T02:42:27;101426.19;;;7.62;84.37
36692;BME280;22678;52.052;4.242;2023-01-10T02:45:03;101414.72;;;7.53;84.26
36692;BME280;22678;52.052;4.242;2023-01-10T02:47:38;101432.28;;;7.61;84.58
36692;BME280;22678;52.052;4.242;2023-01-10T02:53:15;101418.25;;;7.56;85.02
36692;BME280;22678;52.052;4.242;2023-01-10T03:06:37;101434.00;;;7.59;85.09
36692;BME280;22678;52.052;4.242;2023-01-10T03:09:11;101426.97;;;7.54;84.92
36692;BME280;22678;52.052;4.242;2023-01-10T03:11:40;101416.50;;;7.54;84.62
36692;BME280;22678;52.052;4.242;2023-01-10T03:14:16;101426.97;;;7.54;84.43
36692;BME280;22678;52.052;4.242;2023-01-10T03:16:46;101439.25;;;7.59;84.25
36692;BME280;22678;52.052;4.242;2023-01-10T03:19:17;101418.22;;;7.52;84.11
36692;BME280;22678;52.052;4.242;2023-01-10T03:21:46;101426.94;;;7.53;83.91
36692;BME280;22678;52.052;4.242;2023-01-10T03:24:17;101421.66;;;7.48;84.00
36692;BME280;22678;52.052;4.242;2023-01-10T03:27:06;101437.41;;;7.51;84.12
36692;BME280;22678;52.052;4.242;2023-01-10T03:32:06;101454.75;;;7.46;84.15
36692;BME280;22678;52.052;4.242;2023-01-10T03:34:33;101438.09;;;7.40;84.65
36692;BME280;22678;52.052;4.242;2023-01-10T03:37:24;101438.06;;;7.38;84.56
36692;BME280;22678;52.052;4.242;2023-01-10T03:40:04;101449.34;;;7.34;84.70
36692;BME280;22678;52.052;4.242;2023-01-10T03:42:59;101458.97;;;7.35;84.60
36692;BME280;22678;52.052;4.242;2023-01-10T03:45:52;101456.28;;;7.29;84.74
36692;BME280;22678;52.052;4.242;2023-01-10T03:48:22;101460.59;;;7.28;84.72
36692;BME280;22678;52.052;4.242;2023-01-10T03:50:51;101458.78;;;7.24;84.71
36692;BME280;22678;52.052;4.242;2023-01-10T03:53:17;101469.25;;;7.24;84.94
36692;BME280;22678;52.052;4.242;2023-01-10T03:55:43;101447.31;;;7.14;85.18
36692;BME280;22678;52.052;4.242;2023-01-10T03:58:09;101459.50;;;7.14;85.17
36692;BME280;22678;52.052;4.242;2023-01-10T04:00:34;101442.81;;;7.06;85.32
36692;BME280;22678;52.052;4.242;2023-01-10T04:03:00;101448.91;;;7.06;85.57
36692;BME280;22678;52.052;4.242;2023-01-10T04:05:25;101453.31;;;7.07;85.69
36692;BME280;22678;52.052;4.242;2023-01-10T04:07:50;101454.19;;;7.09;85.93
36692;BME280;22678;52.052;4.242;2023-01-10T04:10:16;101460.22;;;7.05;85.94
36692;BME280;22678;52.052;4.242;2023-01-10T04:12:41;101468.94;;;7.03;86.70
36692;BME280;22678;52.052;4.242;2023-01-10T04:15:07;101473.22;;;6.99;86.53
36692;BME280;22678;52.052;4.242;2023-01-10T04:17:32;101481.97;;;7.01;86.57
36692;BME280;22678;52.052;4.242;2023-01-10T04:19:58;101494.22;;;7.05;86.87
36692;BME280;22678;52.052;4.242;2023-01-10T04:22:23;101467.97;;;6.99;86.88
36692;BME280;22678;52.052;4.242;2023-01-10T04:24:48;101457.44;;;6.93;87.38
36692;BME280;22678;52.052;4.242;2023-01-10T04:27:16;101461.84;;;6.97;87.34
36692;BME280;22678;52.052;4.242;2023-01-10T04:29:41;101454.84;;;6.94;87.20
36692;BME280;22678;52.052;4.242;2023-01-10T04:32:06;101456.56;;;6.94;87.40
36692;BME280;22678;52.052;4.242;2023-01-10T04:34:32;101464.38;;;6.91;87.53
36692;BME280;22678;52.052;4.242;2023-01-10T04:36:57;101478.28;;;6.90;87.52
36692;BME280;22678;52.052;4.242;2023-01-10T04:39:23;101496.66;;;6.93;87.67
36692;BME280;22678;52.052;4.242;2023-01-10T04:41:48;101505.31;;;6.90;87.75
36692;BME280;22678;52.052;4.242;2023-01-10T04:44:14;101494.69;;;6.81;88.14
36692;BME280;22678;52.052;4.242;2023-01-10T04:46:39;101507.84;;;6.86;88.42
36692;BME280;22678;52.052;4.242;2023-01-10T04:49:04;101518.25;;;6.82;88.40
36692;BME280;22678;52.052;4.242;2023-01-10T04:51:30;101529.53;;;6.80;88.76
36692;BME280;22678;52.052;4.242;2023-01-10T04:53:55;101513.75;;;6.75;88.86
36692;BME280;22678;52.052;4.242;2023-01-10T04:56:21;101523.47;;;6.82;88.98
36692;BME280;22678;52.052;4.242;2023-01-10T04:58:48;101527.06;;;6.88;89.18
36692;BME280;22678;52.052;4.242;2023-01-10T05:01:16;101524.38;;;6.84;89.06
36692;BME280;22678;52.052;4.242;2023-01-10T05:03:42;101522.50;;;6.76;89.45
36692;BME280;22678;52.052;4.242;2023-01-10T05:06:08;101538.28;;;6.80;89.62
36692;BME280;22678;52.052;4.242;2023-01-10T05:08:33;101511.91;;;6.70;89.63
36692;BME280;22678;52.052;4.242;2023-01-10T05:10:58;101513.69;;;6.71;90.04
36692;BME280;22678;52.052;4.242;2023-01-10T05:13:24;101522.41;;;6.73;90.17
36692;BME280;22678;52.052;4.242;2023-01-10T05:15:54;101532.97;;;6.76;90.48
36692;BME280;22678;52.052;4.242;2023-01-10T05:18:20;101556.56;;;6.80;90.27
36692;BME280;22678;52.052;4.242;2023-01-10T05:20:45;101553.81;;;6.74;90.50
36692;BME280;22678;52.052;4.242;2023-01-10T05:23:11;101524.69;;;6.53;90.42
36692;BME280;22678;52.052;4.242;2023-01-10T05:25:36;101548.53;;;6.71;90.45
36692;BME280;22678;52.052;4.242;2023-01-10T05:28:01;101559.88;;;6.72;90.61
36692;BME280;22678;52.052;4.242;2023-01-10T05:30:27;101568.53;;;6.69;90.82
36692;BME280;22678;52.052;4.242;2023-01-10T05:32:52;101557.97;;;6.63;90.83
36692;BME280;22678;52.052;4.242;2023-01-10T05:35:17;101580.78;;;6.70;90.96
36692;BME280;22678;52.052;4.242;2023-01-10T05:37:43;101572.72;;;6.61;91.09
36692;BME280;22678;52.052;4.242;2023-01-10T05:40:09;101580.63;;;6.64;90.93
36692;BME280;22678;52.052;4.242;2023-01-10T05:42:34;101583.31;;;6.67;91.10
36692;BME280;22678;52.052;4.242;2023-01-10T05:44:59;101575.34;;;6.61;91.61
36692;BME280;22678;52.052;4.242;2023-01-10T05:47:25;101571.81;;;6.59;91.26
36692;BME280;22678;52.052;4.242;2023-01-10T05:49:51;101563.91;;;6.54;91.52
36692;BME280;22678;52.052;4.242;2023-01-10T05:52:16;101569.19;;;6.57;91.65
36692;BME280;22678;52.052;4.242;2023-01-10T05:54:41;101577.94;;;6.59;91.73
36692;BME280;22678;52.052;4.242;2023-01-10T05:57:07;101577.00;;;6.56;91.67
36692;BME280;22678;52.052;4.242;2023-01-10T05:59:32;101570.94;;;6.57;91.77
36692;BME280;22678;52.052;4.242;2023-01-10T06:01:57;101590.13;;;6.59;92.17
36692;BME280;22678;52.052;4.242;2023-01-10T06:04:23;101571.66;;;6.49;91.88
36692;BME280;22678;52.052;4.242;2023-01-10T06:06:48;101573.41;;;6.51;92.02
36692;BME280;22678;52.052;4.242;2023-01-10T06:09:13;101590.06;;;6.56;92.09
36692;BME280;22678;52.052;4.242;2023-01-10T06:11:39;101578.63;;;6.51;92.37
36692;BME280;22678;52.052;4.242;2023-01-10T06:14:04;101587.34;;;6.49;92.34
36692;BME280;22678;52.052;4.242;2023-01-10T06:16:31;101573.34;;;6.47;92.34
36692;BME280;22678;52.052;4.242;2023-01-10T06:18:56;101569.88;;;6.48;92.49
36692;BME280;22678;52.052;4.242;2023-01-10T06:21:22;101575.09;;;6.48;92.56
36692;BME280;22678;52.052;4.242;2023-01-10T06:23:47;101582.09;;;6.49;92.68
36692;BME280;22678;52.052;4.242;2023-01-10T06:26:12;101583.84;;;6.51;92.87
36692;BME280;22678;52.052;4.242;2023-01-10T06:28:38;101598.78;;;6.56;92.80
36692;BME280;22678;52.052;4.242;2023-01-10T06:31:06;101584.53;;;6.42;92.87
36692;BME280;22678;52.052;4.242;2023-01-10T06:33:31;101598.72;;;6.53;92.91
36692;BME280;22678;52.052;4.242;2023-01-10T06:35:56;101607.34;;;6.49;92.92
36692;BME280;22678;52.052;4.242;2023-01-10T06:38:21;101603.88;;;6.50;93.08
36692;BME280;22678;52.052;4.242;2023-01-10T06:40:47;101608.19;;;6.46;92.82
36692;BME280;22678;52.052;4.242;2023-01-10T06:43:12;101621.38;;;6.53;92.97
36692;BME280;22678;52.052;4.242;2023-01-10T06:45:37;101615.19;;;6.51;92.96
36692;BME280;22678;52.052;4.242;2023-01-10T06:48:03;101616.09;;;6.51;93.08
36692;BME280;22678;52.052;4.242;2023-01-10T06:50:28;101627.56;;;6.58;92.98
36692;BME280;22678;52.052;4.242;2023-01-10T06:52:55;101641.72;;;6.69;93.09
36692;BME280;22678;52.052;4.242;2023-01-10T06:55:21;101632.03;;;6.63;93.05
36692;BME280;22678;52.052;4.242;2023-01-10T06:57:47;101641.72;;;6.69;92.85
36692;BME280;22678;52.052;4.242;2023-01-10T07:00:12;101653.28;;;6.79;92.48
36692;BME280;22678;52.052;4.242;2023-01-10T07:02:38;101650.59;;;6.76;92.57
36692;BME280;22678;52.052;4.242;2023-01-10T07:05:03;101639.94;;;6.66;92.53
36692;BME280;22678;52.052;4.242;2023-01-10T07:07:29;101644.25;;;6.64;92.16
36692;BME280;22678;52.052;4.242;2023-01-10T07:09:54;101662.75;;;6.75;91.99
36692;BME280;22678;52.052;4.242;2023-01-10T07:12:19;101670.53;;;6.72;92.06
36692;BME280;22678;52.052;4.242;2023-01-10T07:14:45;101669.81;;;6.79;91.83
36692;BME280;22678;52.052;4.242;2023-01-10T07:17:10;101665.41;;;6.77;91.84
36692;BME280;22678;52.052;4.242;2023-01-10T07:19:35;101674.13;;;6.76;91.75
36692;BME280;22678;52.052;4.242;2023-01-10T07:22:01;101671.44;;;6.74;91.31
36692;BME280;22678;52.052;4.242;2023-01-10T07:24:26;101667.97;;;6.74;91.56
36692;BME280;22678;52.052;4.242;2023-01-10T07:26:54;101662.66;;;6.69;91.74
36692;BME280;22678;52.052;4.242;2023-01-10T07:29:19;101671.53;;;6.77;91.33
36692;BME280;22678;52.052;4.242;2023-01-10T07:31:45;101682.09;;;6.82;91.16
36692;BME280;22678;52.052;4.242;2023-01-10T07:34:10;101664.41;;;6.70;91.47
36692;BME280;22678;52.052;4.242;2023-01-10T07:36:36;101674.13;;;6.76;91.39
36692;BME280;22678;52.052;4.242;2023-01-10T07:39:02;101682.13;;;6.83;91.40
36692;BME280;22678;52.052;4.242;2023-01-10T07:41:27;101667.25;;;6.81;90.96
36692;BME280;22678;52.052;4.242;2023-01-10T07:43:53;101666.41;;;6.82;91.08
36692;BME280;22678;52.052;4.242;2023-01-10T07:46:18;101676.06;;;6.86;91.39
36692;BME280;22678;52.052;4.242;2023-01-10T07:48:43;101677.69;;;6.81;91.27
36692;BME280;22678;52.052;4.242;2023-01-10T07:51:10;101680.38;;;6.84;91.42
36692;BME280;22678;52.052;4.242;2023-01-10T07:53:37;101675.13;;;6.82;91.32
36692;BME280;22678;52.052;4.242;2023-01-10T07:56:02;101678.53;;;6.80;91.28
36692;BME280;22678;52.052;4.242;2023-01-10T07:58:28;101663.47;;;6.68;91.20
36692;BME280;22678;52.052;4.242;2023-01-10T08:01:01;101678.31;;;6.69;91.13
36692;BME280;22678;52.052;4.242;2023-01-10T08:03:28;101682.56;;;6.64;91.16
36692;BME280;22678;52.052;4.242;2023-01-10T08:06:05;101691.34;;;6.66;91.17
36692;BME280;22678;52.052;4.242;2023-01-10T08:08:32;101684.13;;;6.54;91.15
36692;BME280;22678;52.052;4.242;2023-01-10T08:10:57;101677.91;;;6.51;91.10
36692;BME280;22678;52.052;4.242;2023-01-10T08:13:27;101697.22;;;6.56;91.14
36692;BME280;22678;52.052;4.242;2023-01-10T08:15:52;101683.16;;;6.51;91.40
36692;BME280;22678;52.052;4.242;2023-01-10T08:18:19;101692.75;;;6.52;91.04
36692;BME280;22678;52.052;4.242;2023-01-10T08:20:45;101690.94;;;6.49;90.93
36692;BME280;22678;52.052;4.242;2023-01-10T08:23:12;101682.09;;;6.42;91.25
36692;BME280;22678;52.052;4.242;2023-01-10T08:25:37;101670.72;;;6.40;91.33
36692;BME280;22678;52.052;4.242;2023-01-10T08:28:02;101682.16;;;6.44;91.39
36692;BME280;22678;52.052;4.242;2023-01-10T08:30:28;101661.06;;;6.35;91.10
36692;BME280;22678;52.052;4.242;2023-01-10T08:32:53;101650.41;;;6.27;91.32
36692;BME280;22678;52.052;4.242;2023-01-10T08:35:19;101676.78;;;6.38;91.50
36692;BME280;22678;52.052;4.242;2023-01-10T08:37:44;101667.16;;;6.35;91.68
36692;BME280;22678;52.052;4.242;2023-01-10T08:40:10;101678.50;;;6.37;91.50
36692;BME280;22678;52.052;4.242;2023-01-10T08:42:35;101654.72;;;6.25;91.76
36692;BME280;22678;52.052;4.242;2023-01-10T08:45:00;101670.59;;;6.34;92.18
36692;BME280;22678;52.052;4.242;2023-01-10T08:47:27;101659.25;;;6.32;92.03
36692;BME280;22678;52.052;4.242;2023-01-10T08:49:52;101672.38;;;6.35;92.08
36692;BME280;22678;52.052;4.242;2023-01-10T08:52:17;101652.25;;;6.31;91.87
36692;BME280;22678;52.052;4.242;2023-01-10T08:54:43;101662.03;;;6.41;91.90
36692;BME280;22678;52.052;4.242;2023-01-10T08:57:08;101640.97;;;6.32;92.13
36692;BME280;22678;52.052;4.242;2023-01-10T08:59:34;101649.75;;;6.37;92.08
36692;BME280;22678;52.052;4.242;2023-01-10T09:01:59;101625.22;;;6.29;91.99
36692;BME280;22678;52.052;4.242;2023-01-10T09:04:25;101623.50;;;6.31;92.00
36692;BME280;22678;52.052;4.242;2023-01-10T09:06:53;101636.69;;;6.37;92.05
36692;BME280;22678;52.052;4.242;2023-01-10T09:09:18;101648.22;;;6.45;92.48
36692;BME280;22678;52.052;4.242;2023-01-10T09:11:43;101635.16;;;6.45;92.44
36692;BME280;22678;52.052;4.242;2023-01-10T09:14:09;101635.97;;;6.44;92.23
36692;BME280;22678;52.052;4.242;2023-01-10T09:16:34;101628.13;;;6.43;92.28
36692;BME280;22678;52.052;4.242;2023-01-10T09:18:59;101626.41;;;6.43;92.17
36692;BME280;22678;52.052;4.242;2023-01-10T09:21:26;101641.38;;;6.52;92.11
36692;BME280;22678;52.052;4.242;2023-01-10T09:23:52;101633.44;;;6.47;92.16
36692;BME280;22678;52.052;4.242;2023-01-10T09:26:17;101629.13;;;6.49;92.11
36692;BME280;22678;52.052;4.242;2023-01-10T09:28:43;101616.84;;;6.45;92.18
36692;BME280;22678;52.052;4.242;2023-01-10T09:31:08;101593.88;;;6.29;91.68
36692;BME280;22678;52.052;4.242;2023-01-10T09:33:35;101656.31;;;6.58;91.96
36692;BME280;22678;52.052;4.242;2023-01-10T09:36:01;101637.84;;;6.50;92.05
36692;BME280;22678;52.052;4.242;2023-01-10T09:38:26;101646.66;;;6.54;91.77
36692;BME280;22678;52.052;4.242;2023-01-10T09:51:39;101648.53;;;6.61;90.52
36692;BME280;22678;52.052;4.242;2023-01-10T09:54:12;101646.78;;;6.60;90.23
36692;BME280;22678;52.052;4.242;2023-01-10T09:56:39;101649.41;;;6.61;90.03
36692;BME280;22678;52.052;4.242;2023-01-10T09:59:09;101651.13;;;6.61;89.79
36692;BME280;22678;52.052;4.242;2023-01-10T10:01:37;101639.66;;;6.53;89.35
36692;BME280;22678;52.052;4.242;2023-01-10T10:06:52;101632.00;;;6.62;89.13
36692;BME280;22678;52.052;4.242;2023-01-10T10:09:22;101624.16;;;6.62;88.83
36692;BME280;22678;52.052;4.242;2023-01-10T10:12:22;101628.63;;;6.68;88.75
36692;BME280;22678;52.052;4.242;2023-01-10T10:17:55;101632.09;;;6.66;87.98
36692;BME280;22678;52.052;4.242;2023-01-10T10:20:30;101627.75;;;6.67;87.71
36692;BME280;22678;52.052;4.242;2023-01-10T10:25:56;101624.22;;;6.65;87.51
36692;BME280;22678;52.052;4.242;2023-01-10T10:36:39;101599.00;;;6.67;86.48
36692;BME280;22678;52.052;4.242;2023-01-10T10:39:12;101586.66;;;6.60;86.48
36692;BME280;22678;52.052;4.242;2023-01-10T10:41:42;101590.28;;;6.66;86.55
36692;BME280;22678;52.052;4.242;2023-01-10T10:46:57;101577.13;;;6.62;86.40
36692;BME280;22678;52.052;4.242;2023-01-10T10:52:16;101574.66;;;6.71;86.68
36692;BME280;22678;52.052;4.242;2023-01-10T10:54:43;101570.38;;;6.73;86.39
36692;BME280;22678;52.052;4.242;2023-01-10T10:57:10;101555.44;;;6.68;86.59
36692;BME280;22678;52.052;4.242;2023-01-10T10:59:36;101554.66;;;6.72;86.59
36692;BME280;22678;52.052;4.242;2023-01-10T11:02:02;101561.56;;;6.70;86.26
36692;BME280;22678;52.052;4.242;2023-01-10T11:04:34;101537.06;;;6.63;86.31
36692;BME280;22678;52.052;4.242;2023-01-10T11:06:59;101549.41;;;6.70;86.37
36692;BME280;22678;52.052;4.242;2023-01-10T11:09:26;101544.16;;;6.69;86.42
36692;BME280;22678;52.052;4.242;2023-01-10T11:12:27;101550.34;;;6.74;86.20
36692;BME280;22678;52.052;4.242;2023-01-10T11:14:54;101545.00;;;6.68;86.48
36692;BME280;22678;52.052;4.242;2023-01-10T11:20:16;101539.81;;;6.71;86.37
36692;BME280;22678;52.052;4.242;2023-01-10T11:22:51;101531.91;;;6.66;86.49
36692;BME280;22678;52.052;4.242;2023-01-10T11:25:20;101516.09;;;6.60;86.79
36692;BME280;22678;52.052;4.242;2023-01-10T11:27:57;101516.88;;;6.54;86.69
36692;BME280;22678;52.052;4.242;2023-01-10T11:30:27;101521.38;;;6.63;86.60
36692;BME280;22678;52.052;4.242;2023-01-10T11:33:00;101530.22;;;6.71;86.76
36692;BME280;22678;52.052;4.242;2023-01-10T11:35:36;101525.06;;;6.74;86.93
36692;BME280;22678;52.052;4.242;2023-01-10T11:41:03;101499.91;;;6.79;86.84
36692;BME280;22678;52.052;4.242;2023-01-10T11:46:02;101493.84;;;6.80;86.64
36692;BME280;22678;52.052;4.242;2023-01-10T11:48:40;101482.47;;;6.80;86.72
36692;BME280;22678;52.052;4.242;2023-01-10T11:51:16;101458.06;;;6.78;86.61
36692;BME280;22678;52.052;4.242;2023-01-10T11:53:43;101455.44;;;6.78;86.50
36692;BME280;22678;52.052;4.242;2023-01-10T11:56:12;101467.88;;;6.93;86.40
36692;BME280;22678;52.052;4.242;2023-01-10T11:58:46;101460.78;;;6.86;86.25
36692;BME280;22678;52.052;4.242;2023-01-10T12:01:41;101467.09;;;6.97;86.21
36692;BME280;22678;52.052;4.242;2023-01-10T12:04:13;101464.53;;;7.00;86.10
36692;BME280;22678;52.052;4.242;2023-01-10T12:06:44;101459.28;;;7.00;85.85
36692;BME280;22678;52.052;4.242;2023-01-10T12:09:37;101460.19;;;7.02;86.02
36692;BME280;22678;52.052;4.242;2023-01-10T12:12:24;101461.09;;;7.04;85.76
36692;BME280;22678;52.052;4.242;2023-01-10T12:14:51;101438.38;;;7.00;85.79
36692;BME280;22678;52.052;4.242;2023-01-10T12:17:30;101455.06;;;7.08;85.70
36692;BME280;22678;52.052;4.242;2023-01-10T12:19:58;101447.16;;;7.05;85.56
36692;BME280;22678;52.052;4.242;2023-01-10T12:22:48;101446.41;;;7.12;85.39
36692;BME280;22678;52.052;4.242;2023-01-10T12:25:21;101438.47;;;7.08;85.22
36692;BME280;22678;52.052;4.242;2023-01-10T12:27:47;101440.28;;;7.10;85.20
36692;BME280;22678;52.052;4.242;2023-01-10T12:30:19;101434.25;;;7.14;84.82
36692;BME280;22678;52.052;4.242;2023-01-10T12:32:52;101425.41;;;7.08;84.77
36692;BME280;22678;52.052;4.242;2023-01-10T12:35:34;101427.25;;;7.13;84.58
36692;BME280;22678;52.052;4.242;2023-01-10T12:38:14;101408.81;;;7.04;84.59
36692;BME280;22678;52.052;4.242;2023-01-10T12:41:09;101412.25;;;7.03;84.72
36692;BME280;22678;52.052;4.242;2023-01-10T12:43:59;101421.13;;;7.13;84.89
36692;BME280;22678;52.052;4.242;2023-01-10T12:46:44;101405.38;;;7.08;84.66
36692;BME280;22678;52.052;4.242;2023-01-10T12:51:39;101396.69;;;7.12;85.00
36692;BME280;22678;52.052;4.242;2023-01-10T12:54:13;101383.53;;;7.05;85.09
36692;BME280;22678;52.052;4.242;2023-01-10T12:56:39;101386.94;;;7.00;85.61
36692;BME280;22678;52.052;4.242;2023-01-10T13:01:55;101358.97;;;6.95;86.22
36692;BME280;22678;52.052;4.242;2023-01-10T13:04:25;101356.34;;;6.95;86.89
36692;BME280;22678;52.052;4.242;2023-01-10T13:06:53;101353.81;;;6.98;87.28
36692;BME280;22678;52.052;4.242;2023-01-10T13:09:21;101344.09;;;6.91;87.52
36692;BME280;22678;52.052;4.242;2023-01-10T13:11:57;101336.22;;;6.88;88.15
36692;BME280;22678;52.052;4.242;2023-01-10T13:14:28;101349.34;;;6.91;88.23
36692;BME280;22678;52.052;4.242;2023-01-10T13:19:34;101314.22;;;6.75;89.24
36692;BME280;22678;52.052;4.242;2023-01-10T13:22:19;101319.53;;;6.79;89.77
36692;BME280;22678;52.052;4.242;2023-01-10T13:24:59;101307.22;;;6.74;90.16
36692;BME280;22678;52.052;4.242;2023-01-10T13:27:32;101295.91;;;6.73;90.30
36692;BME280;22678;52.052;4.242;2023-01-10T13:29:58;101301.09;;;6.70;91.03
36692;BME280;22678;52.052;4.242;2023-01-10T13:32:28;101270.44;;;6.58;90.95
36692;BME280;22678;52.052;4.242;2023-01-10T13:34:55;101292.28;;;6.63;91.38
36692;BME280;22678;52.052;4.242;2023-01-10T13:37:36;101267.75;;;6.54;92.05
36692;BME280;22678;52.052;4.242;2023-01-10T13:40:03;101268.66;;;6.56;92.19
36692;BME280;22678;52.052;4.242;2023-01-10T13:42:34;101245.88;;;6.48;92.58
36692;BME280;22678;52.052;4.242;2023-01-10T13:45:28;101259.84;;;6.51;92.49
36692;BME280;22678;52.052;4.242;2023-01-10T13:52:49;101228.44;;;6.47;93.43
36692;BME280;22678;52.052;4.242;2023-01-10T14:06:04;101181.25;;;6.35;95.46
36692;BME280;22678;52.052;4.242;2023-01-10T14:08:32;101179.53;;;6.37;95.55
36692;BME280;22678;52.052;4.242;2023-01-10T14:11:10;101164.59;;;6.28;95.74
36692;BME280;22678;52.052;4.242;2023-01-10T14:13:36;101166.44;;;6.36;95.92
36692;BME280;22678;52.052;4.242;2023-01-10T14:16:02;101170.81;;;6.35;96.46
36692;BME280;22678;52.052;4.242;2023-01-10T14:18:36;101160.34;;;6.35;96.79
36692;BME280;22678;52.052;4.242;2023-01-10T14:21:08;101139.38;;;6.29;96.80
36692;BME280;22678;52.052;4.242;2023-01-10T14:23:47;101142.91;;;6.34;97.25
36692;BME280;22678;52.052;4.242;2023-01-10T14:26:34;101133.38;;;6.35;97.32
36692;BME280;22678;52.052;4.242;2023-01-10T14:29:05;101107.16;;;6.30;97.67
36692;BME280;22678;52.052;4.242;2023-01-10T14:31:32;101111.53;;;6.31;97.94
36692;BME280;22678;52.052;4.242;2023-01-10T14:34:01;101098.50;;;6.32;98.19
36692;BME280;22678;52.052;4.242;2023-01-10T14:36:32;101097.59;;;6.29;98.45
36692;BME280;22678;52.052;4.242;2023-01-10T14:39:04;101078.44;;;6.30;98.66
36692;BME280;22678;52.052;4.242;2023-01-10T14:41:36;101066.19;;;6.23;98.77
36692;BME280;22678;52.052;4.242;2023-01-10T14:44:07;101060.13;;;6.28;99.10
36692;BME280;22678;52.052;4.242;2023-01-10T14:46:47;101056.66;;;6.28;99.51